sensor_id;sensor_type;location;lat;lon;timestamp;pressure;altitude;pressure_sealevel;temperature;humidity
18918;BME280;9591;52.742;13.650;2023-05-15T00:00:22;100734.41;;;12.92;100.00
18918;BME280;9591;52.742;13.650;2023-05-15T00:03:09;100735.06;;;12.97;100.00
18918;BME280;9591;52.742;13.650;2023-05-15T00:05:56;100729.53;;;13.01;100.00
18918;BME280;9591;52.742;13.650;2023-05-15T00:08:43;100729.69;;;12.98;100.00
18918;BME280;9591;52.742;13.650;2023-05-15T00:11:30;100728.16;;;12.93;100.00
18918;BME280;9591;52.742;13.650;2023-05-15T00:14:18;100721.16;;;12.90;100.00
18918;BME280;9591;52.742;13.650;2023-05-15T00:17:05;100719.44;;;12.89;100.00
18918;BME280;9591;52.742;13.650;2023-05-15T00:19:52;100711.66;;;12.85;100.00
18918;BME280;9591;52.742;13.650;2023-05-15T00:22:42;100706.59;;;12.78;100.00
18918;BME280;9591;52.742;13.650;2023-05-15T00:25:28;100710.91;;;12.81;100.00
18918;BME280;9591;52.742;13.650;2023-05-15T00:28:15;100705.22;;;12.90;100.00
18918;BME280;9591;52.742;13.650;2023-05-15T00:31:04;100694.41;;;12.95;100.00
18918;BME280;9591;52.742;13.650;2023-05-15T00:33:51;100693.78;;;12.88;100.00
18918;BME280;9591;52.742;13.650;2023-05-15T00:36:38;100689.03;;;12.74;100.00
18918;BME280;9591;52.742;13.650;2023-05-15T00:39:24;100684.47;;;12.78;100.00
18918;BME280;9591;52.742;13.650;2023-05-15T00:42:15;100679.75;;;12.85;100.00
18918;BME280;9591;52.742;13.650;2023-05-15T00:45:07;100691.13;;;12.88;100.00
18918;BME280;9591;52.742;13.650;2023-05-15T00:47:58;100676.44;;;12.79;100.00
18918;BME280;9591;52.742;13.650;2023-05-15T00:50:46;100667.41;;;12.84;100.00
18918;BME280;9591;52.742;13.650;2023-05-15T00:53:32;100664.28;;;12.94;100.00
18918;BME280;9591;52.742;13.650;2023-05-15T00:56:19;100660.84;;;12.92;100.00
18918;BME280;9591;52.742;13.650;2023-05-15T00:59:07;100657.50;;;12.87;100.00
18918;BME280;9591;52.742;13.650;2023-05-15T01:01:54;100658.28;;;12.69;100.00
18918;BME280;9591;52.742;13.650;2023-05-15T01:04:42;100650.94;;;12.54;100.00
18918;BME280;9591;52.742;13.650;2023-05-15T01:07:31;100655.59;;;12.48;100.00
18918;BME280;9591;52.742;13.650;2023-05-15T01:10:20;100646.81;;;12.46;100.00
18918;BME280;9591;52.742;13.650;2023-05-15T01:13:08;100643.22;;;12.47;100.00
18918;BME280;9591;52.742;13.650;2023-05-15T01:15:55;100643.22;;;12.47;100.00
18918;BME280;9591;52.742;13.650;2023-05-15T01:18:42;100642.88;;;12.35;100.00
18918;BME280;9591;52.742;13.650;2023-05-15T01:22:03;100646.31;;;12.15;100.00
18918;BME280;9591;52.742;13.650;2023-05-15T01:25:08;100644.38;;;11.98;100.00
18918;BME280;9591;52.742;13.650;2023-05-15T01:28:02;100644.53;;;11.94;100.00
18918;BME280;9591;52.742;13.650;2023-05-15T01:30:52;100637.88;;;11.84;100.00
18918;BME280;9591;52.742;13.650;2023-05-15T01:33:43;100645.03;;;11.81;100.00
18918;BME280;9591;52.742;13.650;2023-05-15T01:36:35;100640.75;;;11.77;100.00
18918;BME280;9591;52.742;13.650;2023-05-15T01:39:26;100641.19;;;11.65;100.00
18918;BME280;9591;52.742;13.650;2023-05-15T01:42:15;100646.84;;;11.56;100.00
18918;BME280;9591;52.742;13.650;2023-05-15T01:45:11;100648.78;;;11.28;100.00
18918;BME280;9591;52.742;13.650;2023-05-15T01:48:00;100644.88;;;11.14;100.00
18918;BME280;9591;52.742;13.650;2023-05-15T01:50:53;100640.81;;;11.04;100.00
18918;BME280;9591;52.742;13.650;2023-05-15T01:53:44;100637.72;;;11.16;100.00
18918;BME280;9591;52.742;13.650;2023-05-15T01:56:34;100626.16;;;10.94;100.00
18918;BME280;9591;52.742;13.650;2023-05-15T01:59:24;100632.09;;;11.26;100.00
18918;BME280;9591;52.742;13.650;2023-05-15T02:02:14;100637.06;;;11.10;100.00
18918;BME280;9591;52.742;13.650;2023-05-15T02:05:02;100636.84;;;11.16;100.00
18918;BME280;9591;52.742;13.650;2023-05-15T02:07:50;100632.75;;;11.07;100.00
18918;BME280;9591;52.742;13.650;2023-05-15T02:10:40;100631.94;;;11.05;100.00
18918;BME280;9591;52.742;13.650;2023-05-15T02:13:36;100624.00;;;11.05;100.00
18918;BME280;9591;52.742;13.650;2023-05-15T02:16:24;100615.66;;;10.91;100.00
18918;BME280;9591;52.742;13.650;2023-05-15T02:19:13;100626.03;;;10.97;100.00
18918;BME280;9591;52.742;13.650;2023-05-15T02:22:00;100624.25;;;10.98;100.00
18918;BME280;9591;52.742;13.650;2023-05-15T02:24:47;100622.19;;;11.06;100.00
18918;BME280;9591;52.742;13.650;2023-05-15T02:27:40;100616.19;;;11.01;100.00
18918;BME280;9591;52.742;13.650;2023-05-15T02:30:37;100616.03;;;10.80;100.00
18918;BME280;9591;52.742;13.650;2023-05-15T02:33:34;100607.44;;;10.99;100.00
18918;BME280;9591;52.742;13.650;2023-05-15T02:36:29;100611.16;;;10.93;100.00
18918;BME280;9591;52.742;13.650;2023-05-15T02:39:19;100607.22;;;10.80;100.00
18918;BME280;9591;52.742;13.650;2023-05-15T02:42:08;100614.97;;;10.60;100.00
18918;BME280;9591;52.742;13.650;2023-05-15T02:44:56;100610.31;;;10.41;100.00
18918;BME280;9591;52.742;13.650;2023-05-15T02:47:43;100601.59;;;10.39;100.00
18918;BME280;9591;52.742;13.650;2023-05-15T02:50:31;100592.13;;;10.32;100.00
18918;BME280;9591;52.742;13.650;2023-05-15T02:53:19;100594.97;;;10.26;100.00
18918;BME280;9591;52.742;13.650;2023-05-15T02:56:07;100586.88;;;10.31;100.00
18918;BME280;9591;52.742;13.650;2023-05-15T02:58:54;100580.56;;;10.35;100.00
18918;BME280;9591;52.742;13.650;2023-05-15T03:01:43;100580.41;;;10.39;100.00
18918;BME280;9591;52.742;13.650;2023-05-15T03:04:31;100582.19;;;10.39;100.00
18918;BME280;9591;52.742;13.650;2023-05-15T03:07:18;100576.03;;;10.38;100.00
18918;BME280;9591;52.742;13.650;2023-05-15T03:10:07;100578.97;;;10.29;100.00
18918;BME280;9591;52.742;13.650;2023-05-15T03:12:54;100572.66;;;10.33;100.00
18918;BME280;9591;52.742;13.650;2023-05-15T03:15:43;100578.19;;;10.52;100.00
18918;BME280;9591;52.742;13.650;2023-05-15T03:18:30;100574.66;;;10.51;100.00
18918;BME280;9591;52.742;13.650;2023-05-15T03:21:17;100579.53;;;10.39;100.00
18918;BME280;9591;52.742;13.650;2023-05-15T03:24:04;100577.16;;;10.31;100.00
18918;BME280;9591;52.742;13.650;2023-05-15T03:26:52;100570.50;;;10.18;100.00
18918;BME280;9591;52.742;13.650;2023-05-15T03:29:39;100559.53;;;10.02;100.00
18918;BME280;9591;52.742;13.650;2023-05-15T03:32:25;100566.81;;;9.96;100.00
18918;BME280;9591;52.742;13.650;2023-05-15T03:35:12;100565.81;;;10.00;100.00
18918;BME280;9591;52.742;13.650;2023-05-15T03:38:00;100563.78;;;10.08;100.00
18918;BME280;9591;52.742;13.650;2023-05-15T03:40:46;100567.53;;;10.01;100.00
18918;BME280;9591;52.742;13.650;2023-05-15T03:43:37;100562.81;;;9.82;100.00
18918;BME280;9591;52.742;13.650;2023-05-15T03:46:24;100568.16;;;9.81;100.00
18918;BME280;9591;52.742;13.650;2023-05-15T03:49:10;100569.50;;;9.94;100.00
18918;BME280;9591;52.742;13.650;2023-05-15T03:51:58;100569.56;;;9.93;100.00
18918;BME280;9591;52.742;13.650;2023-05-15T03:54:45;100566.09;;;9.91;100.00
18918;BME280;9591;52.742;13.650;2023-05-15T03:57:32;100561.81;;;9.86;100.00
18918;BME280;9591;52.742;13.650;2023-05-15T04:00:21;100564.47;;;9.86;100.00
18918;BME280;9591;52.742;13.650;2023-05-15T04:03:10;100555.75;;;9.83;100.00
18918;BME280;9591;52.742;13.650;2023-05-15T04:05:57;100568.03;;;9.85;100.00
18918;BME280;9591;52.742;13.650;2023-05-15T04:08:48;100567.88;;;9.90;100.00
18918;BME280;9591;52.742;13.650;2023-05-15T04:11:36;100565.28;;;9.89;100.00
18918;BME280;9591;52.742;13.650;2023-05-15T04:14:23;100574.50;;;9.75;100.00
18918;BME280;9591;52.742;13.650;2023-05-15T04:17:13;100575.31;;;9.77;100.00
18918;BME280;9591;52.742;13.650;2023-05-15T04:20:00;100563.16;;;9.72;100.00
18918;BME280;9591;52.742;13.650;2023-05-15T04:22:47;100554.66;;;9.90;100.00
18918;BME280;9591;52.742;13.650;2023-05-15T04:25:33;100558.53;;;9.78;100.00
18918;BME280;9591;52.742;13.650;2023-05-15T04:28:20;100554.69;;;9.89;100.00
18918;BME280;9591;52.742;13.650;2023-05-15T04:31:07;100545.03;;;9.88;100.00
18918;BME280;9591;52.742;13.650;2023-05-15T04:33:55;100534.16;;;9.97;100.00
18918;BME280;9591;52.742;13.650;2023-05-15T04:36:42;100547.78;;;10.11;100.00
18918;BME280;9591;52.742;13.650;2023-05-15T04:39:29;100543.03;;;10.22;100.00
18918;BME280;9591;52.742;13.650;2023-05-15T04:42:16;100529.84;;;10.45;100.00
18918;BME280;9591;52.742;13.650;2023-05-15T04:45:06;100533.91;;;10.56;100.00
18918;BME280;9591;52.742;13.650;2023-05-15T04:47:54;100530.41;;;10.80;100.00
18918;BME280;9591;52.742;13.650;2023-05-15T04:50:42;100538.09;;;11.11;100.00
18918;BME280;9591;52.742;13.650;2023-05-15T04:53:31;100529.34;;;11.31;100.00
18918;BME280;9591;52.742;13.650;2023-05-15T04:56:18;100531.66;;;11.85;100.00
18918;BME280;9591;52.742;13.650;2023-05-15T04:59:05;100527.88;;;12.12;100.00
18918;BME280;9591;52.742;13.650;2023-05-15T05:01:54;100524.75;;;12.23;100.00
18918;BME280;9591;52.742;13.650;2023-05-15T05:04:43;100525.53;;;12.25;100.00
18918;BME280;9591;52.742;13.650;2023-05-15T05:07:33;100507.69;;;12.49;100.00
18918;BME280;9591;52.742;13.650;2023-05-15T05:10:20;100522.09;;;12.64;100.00
18918;BME280;9591;52.742;13.650;2023-05-15T05:13:09;100524.44;;;12.71;100.00
18918;BME280;9591;52.742;13.650;2023-05-15T05:15:56;100527.56;;;12.61;100.00
18918;BME280;9591;52.742;13.650;2023-05-15T05:18:45;100521.50;;;12.57;100.00
18918;BME280;9591;52.742;13.650;2023-05-15T05:21:37;100525.16;;;12.55;100.00
18918;BME280;9591;52.742;13.650;2023-05-15T05:24:28;100518.72;;;12.40;100.00
18918;BME280;9591;52.742;13.650;2023-05-15T05:27:14;100505.56;;;12.37;100.00
18918;BME280;9591;52.742;13.650;2023-05-15T05:30:05;100511.53;;;12.42;100.00
18918;BME280;9591;52.742;13.650;2023-05-15T05:32:56;100506.44;;;12.37;100.00
18918;BME280;9591;52.742;13.650;2023-05-15T05:35:43;100506.41;;;12.17;100.00
18918;BME280;9591;52.742;13.650;2023-05-15T05:38:30;100499.53;;;12.13;100.00
18918;BME280;9591;52.742;13.650;2023-05-15T05:41:23;100495.34;;;12.07;100.00
18918;BME280;9591;52.742;13.650;2023-05-15T05:44:12;100494.81;;;12.20;100.00
18918;BME280;9591;52.742;13.650;2023-05-15T05:46:59;100494.34;;;12.30;100.00
18918;BME280;9591;52.742;13.650;2023-05-15T05:49:49;100500.94;;;12.42;100.00
18918;BME280;9591;52.742;13.650;2023-05-15T05:52:36;100500.72;;;12.46;100.00
18918;BME280;9591;52.742;13.650;2023-05-15T05:55:23;100497.59;;;12.57;100.00
18918;BME280;9591;52.742;13.650;2023-05-15T05:58:19;100487.03;;;12.56;100.00
18918;BME280;9591;52.742;13.650;2023-05-15T06:01:12;100488.19;;;12.50;100.00
18918;BME280;9591;52.742;13.650;2023-05-15T06:04:01;100490.63;;;12.55;100.00
18918;BME280;9591;52.742;13.650;2023-05-15T06:06:48;100492.34;;;12.76;100.00
18918;BME280;9591;52.742;13.650;2023-05-15T06:09:38;100498.44;;;12.78;100.00
18918;BME280;9591;52.742;13.650;2023-05-15T06:12:25;100488.69;;;12.78;100.00
18918;BME280;9591;52.742;13.650;2023-05-15T06:15:15;100474.50;;;12.98;100.00
18918;BME280;9591;52.742;13.650;2023-05-15T06:18:02;100472.56;;;13.21;100.00
18918;BME280;9591;52.742;13.650;2023-05-15T06:20:49;100464.34;;;13.44;100.00
18918;BME280;9591;52.742;13.650;2023-05-15T06:23:37;100466.75;;;13.67;100.00
18918;BME280;9591;52.742;13.650;2023-05-15T06:26:31;100464.59;;;14.10;100.00
18918;BME280;9591;52.742;13.650;2023-05-15T06:29:20;100426.38;;;14.28;100.00
18918;BME280;9591;52.742;13.650;2023-05-15T06:32:11;100451.91;;;14.83;100.00
18918;BME280;9591;52.742;13.650;2023-05-15T06:34:58;100455.13;;;15.05;100.00
18918;BME280;9591;52.742;13.650;2023-05-15T06:37:46;100450.50;;;15.40;100.00
18918;BME280;9591;52.742;13.650;2023-05-15T06:40:37;100461.66;;;15.62;100.00
18918;BME280;9591;52.742;13.650;2023-05-15T06:43:26;100449.25;;;15.77;100.00
18918;BME280;9591;52.742;13.650;2023-05-15T06:46:13;100449.34;;;15.76;100.00
18918;BME280;9591;52.742;13.650;2023-05-15T06:49:08;100446.41;;;15.80;100.00
18918;BME280;9591;52.742;13.650;2023-05-15T06:51:56;100443.69;;;15.96;100.00
18918;BME280;9591;52.742;13.650;2023-05-15T06:54:42;100438.94;;;16.31;100.00
18918;BME280;9591;52.742;13.650;2023-05-15T06:57:29;100431.72;;;16.76;97.02
18918;BME280;9591;52.742;13.650;2023-05-15T07:00:20;100423.50;;;17.34;97.07
18918;BME280;9591;52.742;13.650;2023-05-15T07:03:09;100418.09;;;17.48;94.09
18918;BME280;9591;52.742;13.650;2023-05-15T07:06:00;100416.88;;;17.81;91.78
18918;BME280;9591;52.742;13.650;2023-05-15T07:08:49;100414.13;;;17.95;91.12
18918;BME280;9591;52.742;13.650;2023-05-15T07:11:36;100417.34;;;18.25;89.31
18918;BME280;9591;52.742;13.650;2023-05-15T07:14:23;100422.09;;;18.34;88.58
18918;BME280;9591;52.742;13.650;2023-05-15T07:17:13;100410.28;;;18.37;87.52
18918;BME280;9591;52.742;13.650;2023-05-15T07:20:01;100410.72;;;18.18;87.96
18918;BME280;9591;52.742;13.650;2023-05-15T07:22:56;100413.06;;;18.35;89.17
18918;BME280;9591;52.742;13.650;2023-05-15T07:25:42;100407.31;;;18.67;90.25
18918;BME280;9591;52.742;13.650;2023-05-15T07:28:30;100403.31;;;18.98;88.71
18918;BME280;9591;52.742;13.650;2023-05-15T07:31:17;100404.44;;;19.07;88.08
18918;BME280;9591;52.742;13.650;2023-05-15T07:34:08;100397.91;;;19.35;86.92
18918;BME280;9591;52.742;13.650;2023-05-15T07:36:57;100396.16;;;19.10;87.21
18918;BME280;9591;52.742;13.650;2023-05-15T07:39:45;100392.09;;;19.41;85.93
18918;BME280;9591;52.742;13.650;2023-05-15T07:42:32;100390.03;;;19.44;85.79
18918;BME280;9591;52.742;13.650;2023-05-15T07:45:20;100389.06;;;19.45;84.95
18918;BME280;9591;52.742;13.650;2023-05-15T07:48:14;100380.84;;;19.36;86.48
18918;BME280;9591;52.742;13.650;2023-05-15T07:51:01;100379.09;;;19.11;87.31
18918;BME280;9591;52.742;13.650;2023-05-15T07:53:50;100375.28;;;19.26;88.30
18918;BME280;9591;52.742;13.650;2023-05-15T07:56:38;100377.59;;;19.07;85.78
18918;BME280;9591;52.742;13.650;2023-05-15T07:59:25;100374.09;;;19.06;85.37
18918;BME280;9591;52.742;13.650;2023-05-15T08:02:12;100371.63;;;19.03;85.12
18918;BME280;9591;52.742;13.650;2023-05-15T08:04:59;100372.41;;;19.16;84.50
18918;BME280;9591;52.742;13.650;2023-05-15T08:07:48;100372.66;;;19.37;81.45
18918;BME280;9591;52.742;13.650;2023-05-15T08:10:38;100363.50;;;19.52;79.16
18918;BME280;9591;52.742;13.650;2023-05-15T08:13:33;100360.78;;;19.76;77.46
18918;BME280;9591;52.742;13.650;2023-05-15T08:16:20;100365.59;;;19.95;77.19
18918;BME280;9591;52.742;13.650;2023-05-15T08:19:08;100361.47;;;20.13;76.07
18918;BME280;9591;52.742;13.650;2023-05-15T08:21:57;100361.06;;;19.95;75.58
18918;BME280;9591;52.742;13.650;2023-05-15T08:24:44;100352.06;;;20.08;74.97
18918;BME280;9591;52.742;13.650;2023-05-15T08:27:31;100338.13;;;20.14;76.03
18918;BME280;9591;52.742;13.650;2023-05-15T08:30:20;100337.75;;;20.07;77.53
18918;BME280;9591;52.742;13.650;2023-05-15T08:33:06;100336.91;;;20.07;74.24
18918;BME280;9591;52.742;13.650;2023-05-15T08:35:53;100337.78;;;20.18;72.82
18918;BME280;9591;52.742;13.650;2023-05-15T08:38:40;100331.53;;;20.07;74.72
18918;BME280;9591;52.742;13.650;2023-05-15T08:41:31;100331.28;;;20.10;75.30
18918;BME280;9591;52.742;13.650;2023-05-15T08:44:21;100319.31;;;20.03;72.02
18918;BME280;9591;52.742;13.650;2023-05-15T08:47:10;100294.47;;;19.77;73.96
18918;BME280;9591;52.742;13.650;2023-05-15T08:50:05;100321.97;;;19.80;74.82
18918;BME280;9591;52.742;13.650;2023-05-15T08:52:52;100316.94;;;19.76;73.96
18918;BME280;9591;52.742;13.650;2023-05-15T08:55:42;100313.03;;;19.69;76.78
18918;BME280;9591;52.742;13.650;2023-05-15T08:58:30;100315.19;;;19.40;78.97
18918;BME280;9591;52.742;13.650;2023-05-15T09:01:17;100310.41;;;19.32;79.34
18918;BME280;9591;52.742;13.650;2023-05-15T09:04:06;100317.41;;;19.22;80.08
18918;BME280;9591;52.742;13.650;2023-05-15T09:06:55;100314.75;;;19.22;80.25
18918;BME280;9591;52.742;13.650;2023-05-15T09:09:48;100306.63;;;19.35;81.05
18918;BME280;9591;52.742;13.650;2023-05-15T09:12:43;100310.69;;;19.40;81.36
18918;BME280;9591;52.742;13.650;2023-05-15T09:15:31;100303.44;;;19.29;87.54
18918;BME280;9591;52.742;13.650;2023-05-15T09:18:19;100303.56;;;19.52;85.46
18918;BME280;9591;52.742;13.650;2023-05-15T09:21:22;100306.00;;;19.55;88.28
18918;BME280;9591;52.742;13.650;2023-05-15T09:24:16;100306.66;;;19.70;87.97
18918;BME280;9591;52.742;13.650;2023-05-15T09:27:05;100286.19;;;19.80;92.12
18918;BME280;9591;52.742;13.650;2023-05-15T09:29:52;100304.78;;;20.16;86.13
18918;BME280;9591;52.742;13.650;2023-05-15T09:32:41;100306.19;;;20.44;84.38
18918;BME280;9591;52.742;13.650;2023-05-15T09:35:30;100302.63;;;20.55;73.98
18918;BME280;9591;52.742;13.650;2023-05-15T09:38:18;100302.50;;;20.56;75.09
18918;BME280;9591;52.742;13.650;2023-05-15T09:41:06;100297.97;;;20.57;75.44
18918;BME280;9591;52.742;13.650;2023-05-15T09:43:54;100305.06;;;20.58;74.22
18918;BME280;9591;52.742;13.650;2023-05-15T09:46:41;100298.09;;;20.44;72.67
18918;BME280;9591;52.742;13.650;2023-05-15T09:49:28;100291.63;;;20.47;74.63
18918;BME280;9591;52.742;13.650;2023-05-15T09:52:20;100295.53;;;20.43;74.85
18918;BME280;9591;52.742;13.650;2023-05-15T09:55:18;100301.63;;;20.22;73.29
18918;BME280;9591;52.742;13.650;2023-05-15T09:58:08;100301.00;;;20.30;73.44
18918;BME280;9591;52.742;13.650;2023-05-15T10:00:58;100302.47;;;20.23;73.43
18918;BME280;9591;52.742;13.650;2023-05-15T10:03:55;100302.81;;;19.96;72.92
18918;BME280;9591;52.742;13.650;2023-05-15T10:06:49;100301.34;;;19.92;72.10
18918;BME280;9591;52.742;13.650;2023-05-15T10:09:39;100299.41;;;20.05;73.28
18918;BME280;9591;52.742;13.650;2023-05-15T10:12:33;100298.78;;;20.02;77.23
18918;BME280;9591;52.742;13.650;2023-05-15T10:15:21;100298.16;;;19.98;79.20
18918;BME280;9591;52.742;13.650;2023-05-15T10:18:08;100297.44;;;19.96;82.28
18918;BME280;9591;52.742;13.650;2023-05-15T10:21:13;100297.78;;;19.80;82.32
18918;BME280;9591;52.742;13.650;2023-05-15T10:24:03;100295.53;;;19.63;84.03
18918;BME280;9591;52.742;13.650;2023-05-15T10:26:50;100303.28;;;19.79;87.29
18918;BME280;9591;52.742;13.650;2023-05-15T10:29:46;100302.22;;;19.92;85.21
18918;BME280;9591;52.742;13.650;2023-05-15T10:32:34;100300.38;;;20.15;82.66
18918;BME280;9591;52.742;13.650;2023-05-15T10:35:29;100297.94;;;20.12;82.02
18918;BME280;9591;52.742;13.650;2023-05-15T10:38:18;100298.91;;;20.11;80.08
18918;BME280;9591;52.742;13.650;2023-05-15T10:41:08;100297.84;;;20.36;81.24
18918;BME280;9591;52.742;13.650;2023-05-15T10:44:03;100285.03;;;20.40;80.68
18918;BME280;9591;52.742;13.650;2023-05-15T10:46:57;100287.09;;;20.70;82.79
18918;BME280;9591;52.742;13.650;2023-05-15T10:49:45;100282.06;;;20.76;77.43
18918;BME280;9591;52.742;13.650;2023-05-15T10:52:32;100282.25;;;20.95;73.22
18918;BME280;9591;52.742;13.650;2023-05-15T10:55:24;100275.47;;;21.12;72.93
18918;BME280;9591;52.742;13.650;2023-05-15T10:58:11;100274.59;;;21.23;74.35
18918;BME280;9591;52.742;13.650;2023-05-15T11:01:01;100273.25;;;21.17;70.79
18918;BME280;9591;52.742;13.650;2023-05-15T11:03:50;100262.16;;;21.43;67.21
18918;BME280;9591;52.742;13.650;2023-05-15T11:06:41;100257.03;;;21.61;67.48
18918;BME280;9591;52.742;13.650;2023-05-15T11:09:36;100258.84;;;21.81;67.06
18918;BME280;9591;52.742;13.650;2023-05-15T11:12:55;100251.81;;;21.89;64.78
18918;BME280;9591;52.742;13.650;2023-05-15T11:15:47;100246.59;;;22.18;63.34
18918;BME280;9591;52.742;13.650;2023-05-15T11:18:37;100232.56;;;22.24;65.63
18918;BME280;9591;52.742;13.650;2023-05-15T11:21:30;100237.97;;;22.24;58.91
18918;BME280;9591;52.742;13.650;2023-05-15T11:24:19;100241.88;;;22.41;59.19
18918;BME280;9591;52.742;13.650;2023-05-15T11:27:06;100230.25;;;22.50;57.65
18918;BME280;9591;52.742;13.650;2023-05-15T11:30:09;100218.84;;;22.37;57.56
18918;BME280;9591;52.742;13.650;2023-05-15T11:32:59;100212.50;;;22.67;57.85
18918;BME280;9591;52.742;13.650;2023-05-15T11:35:57;100210.44;;;22.80;53.53
18918;BME280;9591;52.742;13.650;2023-05-15T11:38:50;100200.81;;;23.07;56.01
18918;BME280;9591;52.742;13.650;2023-05-15T11:41:38;100198.81;;;23.18;54.91
18918;BME280;9591;52.742;13.650;2023-05-15T11:44:28;100197.38;;;23.05;53.58
18918;BME280;9591;52.742;13.650;2023-05-15T11:47:19;100191.00;;;23.06;52.53
18918;BME280;9591;52.742;13.650;2023-05-15T11:50:10;100186.00;;;23.40;51.05
18918;BME280;9591;52.742;13.650;2023-05-15T11:53:02;100182.53;;;23.47;54.70
18918;BME280;9591;52.742;13.650;2023-05-15T11:55:53;100177.44;;;23.54;50.02
18918;BME280;9591;52.742;13.650;2023-05-15T11:58:42;100176.28;;;23.57;55.45
18918;BME280;9591;52.742;13.650;2023-05-15T12:01:38;100169.38;;;23.91;52.17
18918;BME280;9591;52.742;13.650;2023-05-15T12:04:24;100174.75;;;24.01;50.56
18918;BME280;9591;52.742;13.650;2023-05-15T12:07:11;100171.84;;;24.12;45.83
18918;BME280;9591;52.742;13.650;2023-05-15T12:10:06;100165.34;;;24.32;48.23
18918;BME280;9591;52.742;13.650;2023-05-15T12:12:54;100171.94;;;24.47;47.53
18918;BME280;9591;52.742;13.650;2023-05-15T12:15:43;100169.28;;;24.83;46.21
18918;BME280;9591;52.742;13.650;2023-05-15T12:18:31;100165.09;;;24.71;40.46
18918;BME280;9591;52.742;13.650;2023-05-15T12:21:25;100162.47;;;24.79;44.25
18918;BME280;9591;52.742;13.650;2023-05-15T12:24:12;100153.19;;;24.81;41.95
18918;BME280;9591;52.742;13.650;2023-05-15T12:26:59;100158.28;;;24.67;42.81
18918;BME280;9591;52.742;13.650;2023-05-15T12:29:50;100143.66;;;24.60;42.72
18918;BME280;9591;52.742;13.650;2023-05-15T12:32:38;100142.06;;;24.39;43.74
18918;BME280;9591;52.742;13.650;2023-05-15T12:35:28;100124.75;;;24.05;45.00
18918;BME280;9591;52.742;13.650;2023-05-15T12:38:17;100153.38;;;23.61;43.33
18918;BME280;9591;52.742;13.650;2023-05-15T12:41:09;100154.72;;;23.37;43.58
18918;BME280;9591;52.742;13.650;2023-05-15T12:43:57;100170.53;;;22.94;48.98
18918;BME280;9591;52.742;13.650;2023-05-15T12:46:48;100189.53;;;22.13;47.87
18918;BME280;9591;52.742;13.650;2023-05-15T12:50:13;100204.66;;;21.01;51.34
18918;BME280;9591;52.742;13.650;2023-05-15T12:53:08;100233.31;;;20.14;58.01
18918;BME280;9591;52.742;13.650;2023-05-15T12:56:04;100209.59;;;18.69;63.25
18918;BME280;9591;52.742;13.650;2023-05-15T12:58:55;100254.16;;;18.46;66.50
18918;BME280;9591;52.742;13.650;2023-05-15T13:01:49;100251.56;;;18.45;74.55
18918;BME280;9591;52.742;13.650;2023-05-15T13:04:38;100254.66;;;18.15;84.18
18918;BME280;9591;52.742;13.650;2023-05-15T13:07:25;100259.31;;;17.60;87.39
18918;BME280;9591;52.742;13.650;2023-05-15T13:10:12;100257.56;;;17.34;92.19
18918;BME280;9591;52.742;13.650;2023-05-15T13:13:03;100267.56;;;17.05;94.99
18918;BME280;9591;52.742;13.650;2023-05-15T13:15:53;100263.56;;;16.98;98.39
18918;BME280;9591;52.742;13.650;2023-05-15T13:18:51;100220.09;;;16.26;100.00
18918;BME280;9591;52.742;13.650;2023-05-15T13:21:43;100266.22;;;16.71;100.00
18918;BME280;9591;52.742;13.650;2023-05-15T13:24:30;100268.34;;;16.52;100.00
18918;BME280;9591;52.742;13.650;2023-05-15T13:27:17;100257.22;;;16.31;100.00
18918;BME280;9591;52.742;13.650;2023-05-15T13:30:06;100267.63;;;16.35;100.00
18918;BME280;9591;52.742;13.650;2023-05-15T13:32:55;100276.50;;;15.93;100.00
18918;BME280;9591;52.742;13.650;2023-05-15T13:39:24;100273.44;;;15.99;100.00
18918;BME280;9591;52.742;13.650;2023-05-15T13:42:11;100266.88;;;16.19;100.00
18918;BME280;9591;52.742;13.650;2023-05-15T13:45:06;100255.91;;;16.10;100.00
18918;BME280;9591;52.742;13.650;2023-05-15T13:48:06;100265.63;;;15.96;100.00
18918;BME280;9591;52.742;13.650;2023-05-15T13:51:00;100251.41;;;15.96;100.00
18918;BME280;9591;52.742;13.650;2023-05-15T13:53:57;100256.66;;;15.97;100.00
18918;BME280;9591;52.742;13.650;2023-05-15T13:56:49;100254.00;;;16.12;100.00
18918;BME280;9591;52.742;13.650;2023-05-15T13:59:35;100256.75;;;16.10;100.00
18918;BME280;9591;52.742;13.650;2023-05-15T14:02:22;100263.06;;;15.95;100.00
18918;BME280;9591;52.742;13.650;2023-05-15T14:05:12;100197.13;;;15.53;100.00
18918;BME280;9591;52.742;13.650;2023-05-15T14:07:59;100254.75;;;15.85;100.00
18918;BME280;9591;52.742;13.650;2023-05-15T14:10:46;100265.13;;;15.90;100.00
18918;BME280;9591;52.742;13.650;2023-05-15T14:13:38;100257.91;;;16.20;100.00
18918;BME280;9591;52.742;13.650;2023-05-15T14:16:26;100262.38;;;16.20;100.00
18918;BME280;9591;52.742;13.650;2023-05-15T14:19:15;100257.72;;;16.23;100.00
18918;BME280;9591;52.742;13.650;2023-05-15T14:22:04;100250.47;;;16.25;100.00
18918;BME280;9591;52.742;13.650;2023-05-15T14:24:56;100251.50;;;16.23;100.00
18918;BME280;9591;52.742;13.650;2023-05-15T14:27:50;100255.06;;;16.50;100.00
18918;BME280;9591;52.742;13.650;2023-05-15T14:30:39;100236.88;;;16.43;100.00
18918;BME280;9591;52.742;13.650;2023-05-15T14:33:26;100238.16;;;16.64;100.00
18918;BME280;9591;52.742;13.650;2023-05-15T14:36:15;100229.97;;;16.67;100.00
18918;BME280;9591;52.742;13.650;2023-05-15T14:39:03;100212.06;;;16.82;100.00
18918;BME280;9591;52.742;13.650;2023-05-15T14:41:49;100239.19;;;17.02;100.00
18918;BME280;9591;52.742;13.650;2023-05-15T14:44:36;100228.75;;;16.85;100.00